Colonia Sao Joao, Brazil
Current Conditions -  °F | °C
As of 6:00 PM on Sunday 23 Nov 2014 (Local Time) from SBSM Reporting Station
Clear Clear  
Wind Chill: 81°   Ceiling: Unl
Heat Index: 81°   Visibility: 6mi
Dew Point: 54°   Wind: 7mph
Humidity: 39%   Direction: 130°SE
Pressure: 29.85"   Gusts: NA
Location:  28.71°S, 53.29°W
Report Text: SBSM 232000Z 13006KT 100V190 CAVOK 27/12 Q1011
Loading
Personal Weather Stations






























Interactive Weather Map New forecast layout! Learn more

10-Day Weather Forecast

Advertisements
Track Severe Weather on mobile